createdAt,value
2023-02-19T00:01:53.788Z,10.76
2023-02-19T00:04:22.096Z,10.86
2023-02-19T00:06:48.840Z,10.83
2023-02-19T00:09:19.749Z,10.75
2023-02-19T00:11:46.574Z,10.79
2023-02-19T00:14:23.610Z,10.76
2023-02-19T00:16:50.383Z,10.74
2023-02-19T00:19:19.682Z,10.73
2023-02-19T00:21:46.521Z,10.73
2023-02-19T00:24:16.236Z,10.74
2023-02-19T00:26:50.571Z,10.86
2023-02-19T00:29:22.014Z,10.74
2023-02-19T00:31:51.336Z,10.63
2023-02-19T00:34:20.935Z,10.55
2023-02-19T00:36:51.812Z,10.46
2023-02-19T00:39:24.604Z,10.47
2023-02-19T00:41:51.201Z,10.46
2023-02-19T00:44:17.796Z,10.37
2023-02-19T00:46:51.034Z,9.72
2023-02-19T00:49:22.946Z,8.71
2023-02-19T00:51:55.824Z,8.05
2023-02-19T00:54:24.969Z,7.65
2023-02-19T00:57:15.506Z,7.32
2023-02-19T00:59:45.540Z,7.23
2023-02-19T01:02:12.129Z,7.17
2023-02-19T01:04:38.832Z,7.22
2023-02-19T01:07:05.400Z,7.36
2023-02-19T01:09:37.565Z,7.13
2023-02-19T01:12:07.530Z,6.83
2023-02-19T01:14:36.651Z,7.06
2023-02-19T01:17:06.718Z,6.97
2023-02-19T01:19:38.064Z,7.14
2023-02-19T01:22:07.398Z,7.14
2023-02-19T01:24:34.029Z,7.18
2023-02-19T01:27:00.875Z,7.22
2023-02-19T01:29:27.507Z,7.22
2023-02-19T01:34:43.215Z,7.35
2023-02-19T01:37:12.413Z,7.37
2023-02-19T01:39:39.482Z,7.63
2023-02-19T01:42:15.011Z,7.63
2023-02-19T01:44:47.731Z,7.49
2023-02-19T01:47:19.845Z,7.39
2023-02-19T01:49:58.634Z,7.35
2023-02-19T01:52:40.915Z,7.29
2023-02-19T01:55:14.513Z,7.25
2023-02-19T01:57:54.278Z,7.24
2023-02-19T02:00:29.127Z,7.16
2023-02-19T02:03:01.280Z,7.17
2023-02-19T02:05:54.830Z,7.03
2023-02-19T02:08:30.658Z,6.94
2023-02-19T02:10:58.005Z,6.91
2023-02-19T02:13:24.763Z,6.80
2023-02-19T02:16:13.913Z,6.77
2023-02-19T02:18:49.366Z,6.75
2023-02-19T02:21:53.486Z,6.77
2023-02-19T02:24:47.883Z,7.01
2023-02-19T02:27:41.229Z,6.88
2023-02-19T02:30:33.053Z,6.86
2023-02-19T02:33:12.403Z,6.82
2023-02-19T02:36:17.242Z,6.83
2023-02-19T02:38:49.215Z,6.80
2023-02-19T02:41:16.350Z,6.74
2023-02-19T02:43:42.978Z,6.79
2023-02-19T02:46:18.573Z,6.88
2023-02-19T02:49:02.905Z,6.89
2023-02-19T02:51:36.407Z,6.94
2023-02-19T02:54:28.786Z,7.02
2023-02-19T02:56:59.097Z,7.11
2023-02-19T02:59:39.753Z,7.13
2023-02-19T03:02:17.663Z,7.54
2023-02-19T03:05:08.438Z,7.29
2023-02-19T03:10:40.118Z,7.39
2023-02-19T03:13:23.222Z,7.38
2023-02-19T03:16:24.586Z,7.31
2023-02-19T03:18:54.539Z,7.30
2023-02-19T03:21:23.942Z,7.24
2023-02-19T03:23:51.265Z,7.28
2023-02-19T03:26:19.312Z,7.47
2023-02-19T03:28:50.248Z,7.46
2023-02-19T03:31:26.173Z,7.23
2023-02-19T03:33:59.919Z,7.31
2023-02-19T03:36:41.396Z,7.26
2023-02-19T03:39:12.966Z,7.15
2023-02-19T03:41:50.775Z,7.01
2023-02-19T03:44:52.941Z,7.06
2023-02-19T03:47:30.417Z,6.96
2023-02-19T03:50:15.725Z,6.96
2023-02-19T03:53:17.114Z,6.86
2023-02-19T03:56:31.858Z,6.88
2023-02-19T03:59:24.020Z,6.87
2023-02-19T04:02:09.106Z,6.85
2023-02-19T04:04:52.741Z,6.85
2023-02-19T04:07:19.650Z,6.82
2023-02-19T04:09:49.984Z,6.75
2023-02-19T04:12:18.233Z,6.77
2023-02-19T04:15:02.228Z,7.00
2023-02-19T04:17:55.724Z,7.29
2023-02-19T04:20:32.099Z,7.15
2023-02-19T04:23:17.476Z,7.13
2023-02-19T04:25:50.680Z,7.05
2023-02-19T04:28:24.101Z,7.19
2023-02-19T04:30:50.558Z,7.52
2023-02-19T04:33:17.239Z,7.45
2023-02-19T04:35:52.695Z,7.42
2023-02-19T04:38:21.640Z,7.25
2023-02-19T04:40:48.238Z,7.22
2023-02-19T04:43:26.766Z,7.17
2023-02-19T04:45:58.829Z,7.17
2023-02-19T04:48:36.892Z,7.21
2023-02-19T04:51:10.501Z,7.19
2023-02-19T04:53:42.581Z,7.26
2023-02-19T04:56:20.146Z,7.20
2023-02-19T04:58:46.693Z,7.34
2023-02-19T05:01:18.049Z,7.37
2023-02-19T05:03:47.670Z,7.27
2023-02-19T05:06:17.370Z,7.24
2023-02-19T05:08:54.687Z,7.19
2023-02-19T05:11:21.284Z,7.27
2023-02-19T05:13:55.785Z,7.33
2023-02-19T05:16:32.203Z,7.22
2023-02-19T05:18:59.041Z,7.32
2023-02-19T05:21:27.835Z,7.43
2023-02-19T05:23:54.419Z,7.42
2023-02-19T05:26:30.870Z,7.32
2023-02-19T05:29:01.465Z,7.46
2023-02-19T05:31:30.643Z,7.52
2023-02-19T05:33:57.487Z,7.53
2023-02-19T05:36:27.038Z,7.53
2023-02-19T05:38:55.486Z,7.54
2023-02-19T05:41:30.758Z,7.55
2023-02-19T05:44:00.698Z,7.55
2023-02-19T05:46:35.747Z,7.49
2023-02-19T05:49:02.418Z,7.57
2023-02-19T05:51:29.273Z,7.49
2023-02-19T05:54:08.737Z,7.46
2023-02-19T05:56:45.229Z,7.46
2023-02-19T05:59:24.961Z,7.41
2023-02-19T06:01:53.112Z,7.45
2023-02-19T06:04:22.511Z,7.36
2023-02-19T06:06:49.534Z,7.25
2023-02-19T06:09:18.860Z,7.26
2023-02-19T06:11:54.543Z,7.36
2023-02-19T06:14:24.354Z,7.29
2023-02-19T06:16:50.969Z,7.32
2023-02-19T06:19:17.553Z,7.32
2023-02-19T06:21:56.718Z,7.26
2023-02-19T06:24:24.415Z,7.18
2023-02-19T06:26:53.313Z,7.30
2023-02-19T06:29:26.108Z,7.27
2023-02-19T06:31:52.730Z,7.29
2023-02-19T06:34:21.642Z,7.28
2023-02-19T06:37:02.553Z,7.34
2023-02-19T06:39:29.104Z,7.31
2023-02-19T06:41:56.672Z,7.27
2023-02-19T06:44:23.517Z,7.30
2023-02-19T06:46:55.387Z,7.29
2023-02-19T06:49:31.346Z,7.32
2023-02-19T06:52:04.499Z,7.35
2023-02-19T06:54:37.251Z,7.40
2023-02-19T06:57:17.986Z,7.49
2023-02-19T06:59:55.774Z,7.53
2023-02-19T07:02:24.612Z,7.55
2023-02-19T07:04:56.206Z,7.59
2023-02-19T07:07:30.149Z,7.67
2023-02-19T07:10:10.438Z,7.71
2023-02-19T07:12:39.334Z,7.76
2023-02-19T07:15:17.638Z,7.91
2023-02-19T07:17:47.250Z,8.05
2023-02-19T07:20:15.142Z,8.27
2023-02-19T07:22:41.737Z,8.42
2023-02-19T07:25:17.547Z,8.52
2023-02-19T07:30:24.615Z,9.15
2023-02-19T07:32:56.259Z,9.15
2023-02-19T07:35:29.935Z,9.58
2023-02-19T07:38:02.126Z,9.54
2023-02-19T07:40:28.810Z,9.60
2023-02-19T07:42:57.181Z,9.90
2023-02-19T07:45:23.748Z,9.79
2023-02-19T07:47:57.394Z,10.14
2023-02-19T07:50:26.680Z,10.39
2023-02-19T07:52:56.258Z,10.44
2023-02-19T07:55:22.838Z,10.46
2023-02-19T07:57:55.028Z,10.69
2023-02-19T08:00:21.612Z,10.72
2023-02-19T08:02:48.191Z,10.96
2023-02-19T08:05:14.849Z,10.99
2023-02-19T08:07:45.528Z,11.37
2023-02-19T08:10:13.498Z,11.28
2023-02-19T08:12:40.209Z,11.39
2023-02-19T08:15:09.436Z,11.59
2023-02-19T08:17:43.604Z,11.70
2023-02-19T08:20:15.891Z,11.84
2023-02-19T08:22:42.533Z,11.89
2023-02-19T08:25:18.854Z,11.74
2023-02-19T08:27:56.537Z,11.74
2023-02-19T08:30:23.513Z,11.91
2023-02-19T08:32:52.663Z,11.90
2023-02-19T08:35:32.483Z,12.05
2023-02-19T08:38:12.857Z,12.01
2023-02-19T08:40:46.163Z,11.94
2023-02-19T08:43:16.240Z,12.12
2023-02-19T08:45:45.097Z,12.28
2023-02-19T08:48:15.968Z,11.92
2023-02-19T08:50:42.592Z,11.91
2023-02-19T08:53:15.194Z,11.83
2023-02-19T08:55:43.957Z,11.94
2023-02-19T08:58:19.210Z,11.88
2023-02-19T09:01:14.393Z,12.17
2023-02-19T09:03:41.668Z,12.00
2023-02-19T09:06:08.551Z,11.98
2023-02-19T09:08:35.686Z,12.15
2023-02-19T09:11:07.516Z,12.25
2023-02-19T09:13:34.391Z,11.94
2023-02-19T09:16:08.041Z,12.14
2023-02-19T09:18:34.913Z,11.88
2023-02-19T09:21:07.316Z,11.97
2023-02-19T09:23:36.651Z,12.11
2023-02-19T09:26:08.537Z,12.04
2023-02-19T09:28:35.847Z,12.08
2023-02-19T09:31:07.346Z,12.31
2023-02-19T09:33:33.973Z,12.20
2023-02-19T09:36:06.805Z,12.14
2023-02-19T09:38:36.352Z,12.31
2023-02-19T09:41:33.270Z,12.60
2023-02-19T09:44:04.594Z,12.60
2023-02-19T09:46:47.446Z,12.61
2023-02-19T09:49:36.191Z,12.62
2023-02-19T09:52:14.885Z,12.66
2023-02-19T09:54:42.582Z,12.59
2023-02-19T09:57:20.960Z,12.64
2023-02-19T09:59:53.486Z,12.76
2023-02-19T10:02:32.426Z,12.84
2023-02-19T10:05:12.588Z,12.86
2023-02-19T10:07:52.984Z,12.82
2023-02-19T10:10:22.343Z,12.90
2023-02-19T10:12:53.265Z,12.96
2023-02-19T10:15:32.103Z,13.15
2023-02-19T10:17:59.798Z,13.12
2023-02-19T10:20:32.973Z,13.29
2023-02-19T10:23:09.093Z,13.35
2023-02-19T10:25:46.854Z,13.44
2023-02-19T10:28:17.643Z,13.45
2023-02-19T10:30:47.867Z,13.47
2023-02-19T10:33:16.880Z,13.49
2023-02-19T10:36:05.583Z,13.57
2023-02-19T10:38:45.495Z,13.55
2023-02-19T10:41:21.689Z,13.51
2023-02-19T10:44:19.034Z,13.63
2023-02-19T10:46:58.575Z,13.71
2023-02-19T10:49:40.199Z,13.69
2023-02-19T10:52:21.098Z,13.68
2023-02-19T10:54:59.650Z,13.66
2023-02-19T11:00:15.280Z,13.78
2023-02-19T11:02:43.934Z,13.83
2023-02-19T11:05:13.319Z,13.80
2023-02-19T11:07:55.857Z,13.81
2023-02-19T11:10:26.280Z,13.92
2023-02-19T11:12:59.134Z,14.03
2023-02-19T11:15:42.660Z,13.97
2023-02-19T11:18:14.110Z,13.89
2023-02-19T11:21:00.094Z,13.91
2023-02-19T11:23:34.189Z,14.07
2023-02-19T11:26:11.653Z,14.02
2023-02-19T11:28:45.412Z,14.14
2023-02-19T11:31:26.896Z,14.06
2023-02-19T11:34:24.210Z,14.00
2023-02-19T11:37:10.930Z,14.18
2023-02-19T11:39:46.902Z,14.16
2023-02-19T11:42:41.445Z,14.09
2023-02-19T11:45:35.782Z,14.23
2023-02-19T11:48:42.675Z,14.20
2023-02-19T11:51:17.074Z,14.26
2023-02-19T11:54:18.949Z,14.16
2023-02-19T11:57:01.510Z,14.34
2023-02-19T11:59:47.462Z,14.21
2023-02-19T12:02:28.668Z,14.20
2023-02-19T12:05:18.375Z,14.23
2023-02-19T12:08:22.397Z,14.22
2023-02-19T12:11:36.625Z,14.33
2023-02-19T12:14:34.087Z,14.36
2023-02-19T12:17:04.012Z,14.44
2023-02-19T12:19:36.438Z,14.50
2023-02-19T12:22:24.776Z,14.45
2023-02-19T12:25:21.634Z,14.39
2023-02-19T12:28:11.711Z,14.34
2023-02-19T12:31:01.853Z,14.34
2023-02-19T12:33:49.632Z,14.47
2023-02-19T12:36:37.651Z,14.46
2023-02-19T12:39:28.446Z,14.34
2023-02-19T12:42:17.966Z,14.48
2023-02-19T12:45:10.493Z,14.55
2023-02-19T12:47:58.818Z,14.28
2023-02-19T12:50:27.113Z,14.35
2023-02-19T12:53:39.578Z,14.60
2023-02-19T12:56:33.440Z,14.53
2023-02-19T12:59:02.233Z,14.62
2023-02-19T13:01:35.922Z,14.46
2023-02-19T13:04:44.470Z,14.61
2023-02-19T13:07:42.058Z,14.50
2023-02-19T13:10:44.927Z,14.49
2023-02-19T13:13:31.322Z,14.70
2023-02-19T13:16:30.083Z,14.75
2023-02-19T13:19:01.174Z,14.72
2023-02-19T13:21:56.489Z,14.64
2023-02-19T13:24:35.093Z,14.59
2023-02-19T13:27:25.781Z,14.58
2023-02-19T13:30:11.422Z,14.49
2023-02-19T13:33:19.288Z,14.41
2023-02-19T13:36:01.271Z,14.46
2023-02-19T13:38:30.192Z,14.48
2023-02-19T13:40:58.783Z,14.51
2023-02-19T13:43:31.025Z,14.62
2023-02-19T13:46:04.827Z,14.74
2023-02-19T13:48:36.896Z,14.61
2023-02-19T13:51:13.088Z,14.51
2023-02-19T13:53:42.858Z,14.45
2023-02-19T13:56:38.256Z,14.62
2023-02-19T13:59:42.260Z,14.58
2023-02-19T14:02:29.704Z,14.43
2023-02-19T14:05:03.565Z,14.37
2023-02-19T14:07:57.369Z,14.28
2023-02-19T14:10:54.110Z,14.25
2023-02-19T14:13:56.121Z,14.40
2023-02-19T14:16:49.845Z,14.46
2023-02-19T14:19:45.777Z,14.28
2023-02-19T14:22:53.846Z,14.29
2023-02-19T14:25:52.630Z,14.43
2023-02-19T14:28:40.446Z,14.33
2023-02-19T14:31:22.804Z,14.23
2023-02-19T14:34:16.185Z,14.23
2023-02-19T14:37:00.735Z,14.39
2023-02-19T14:39:31.780Z,14.35
2023-02-19T14:42:01.641Z,14.23
2023-02-19T14:44:53.170Z,14.33
2023-02-19T14:47:22.933Z,14.25
2023-02-19T14:50:03.855Z,14.21
2023-02-19T14:52:37.980Z,14.14
2023-02-19T14:55:29.461Z,14.10
2023-02-19T14:57:59.912Z,14.11
2023-02-19T15:00:48.414Z,14.11
2023-02-19T15:03:28.841Z,14.06
2023-02-19T15:06:23.618Z,14.03
2023-02-19T15:08:59.358Z,14.09
2023-02-19T15:11:35.616Z,14.19
2023-02-19T15:14:32.464Z,14.16
2023-02-19T15:17:17.047Z,13.96
2023-02-19T15:19:45.248Z,13.99
2023-02-19T15:22:32.721Z,14.01
2023-02-19T15:25:07.056Z,14.03
2023-02-19T15:27:38.890Z,13.98
2023-02-19T15:30:24.341Z,13.99
2023-02-19T15:32:59.738Z,14.08
2023-02-19T15:35:40.888Z,14.03
2023-02-19T15:38:18.238Z,13.93
2023-02-19T15:40:52.930Z,13.88
2023-02-19T15:43:44.639Z,13.95
2023-02-19T15:46:23.069Z,13.97
2023-02-19T15:48:58.782Z,13.84
2023-02-19T15:54:39.267Z,13.75
2023-02-19T15:57:23.665Z,13.87
2023-02-19T16:00:41.694Z,13.83
2023-02-19T16:03:18.138Z,13.76
2023-02-19T16:05:45.425Z,13.75
2023-02-19T16:08:17.589Z,13.73
2023-02-19T16:10:58.001Z,13.73
2023-02-19T16:13:31.129Z,13.56
2023-02-19T16:16:09.940Z,13.64
2023-02-19T16:18:37.214Z,13.51
2023-02-19T16:21:18.461Z,13.48
2023-02-19T16:23:55.402Z,13.40
2023-02-19T16:26:25.279Z,13.38
2023-02-19T16:28:57.168Z,13.39
2023-02-19T16:31:24.347Z,13.35
2023-02-19T16:33:51.419Z,13.33
2023-02-19T16:36:33.335Z,13.30
2023-02-19T16:39:17.888Z,13.25
2023-02-19T16:41:49.408Z,13.20
2023-02-19T16:44:25.251Z,13.14
2023-02-19T16:47:09.770Z,13.14
2023-02-19T16:49:38.705Z,13.10
2023-02-19T16:52:11.587Z,13.02
2023-02-19T16:54:40.633Z,12.92
2023-02-19T16:57:16.393Z,12.87
2023-02-19T16:59:49.147Z,12.93
2023-02-19T17:02:31.038Z,12.96
2023-02-19T17:05:00.647Z,12.87
2023-02-19T17:07:29.881Z,12.88
2023-02-19T17:09:56.430Z,12.83
2023-02-19T17:12:23.075Z,12.80
2023-02-19T17:14:49.681Z,12.75
2023-02-19T17:17:16.201Z,12.71
2023-02-19T17:19:45.076Z,12.71
2023-02-19T17:22:14.200Z,12.67
2023-02-19T17:24:44.915Z,12.58
2023-02-19T17:27:14.730Z,12.55
2023-02-19T17:29:58.353Z,12.51
2023-02-19T17:32:27.631Z,12.50
2023-02-19T17:34:54.350Z,12.50
2023-02-19T17:37:20.978Z,12.52
2023-02-19T17:39:50.702Z,12.48
2023-02-19T17:42:19.825Z,12.49
2023-02-19T17:44:47.754Z,12.52
2023-02-19T17:47:14.377Z,12.47
2023-02-19T17:49:47.168Z,12.43
2023-02-19T17:52:25.509Z,12.44
2023-02-19T17:54:52.098Z,12.32
2023-02-19T17:57:18.875Z,12.24
2023-02-19T17:59:45.604Z,12.19
2023-02-19T18:02:12.193Z,12.14
2023-02-19T18:04:41.132Z,12.15
2023-02-19T18:07:12.576Z,12.19
2023-02-19T18:09:39.192Z,12.23
2023-02-19T18:12:07.803Z,12.26
2023-02-19T18:14:39.392Z,12.15
2023-02-19T18:17:06.834Z,12.11
2023-02-19T18:19:33.426Z,11.98
2023-02-19T18:21:59.988Z,12.00
2023-02-19T18:24:26.598Z,11.95
2023-02-19T18:26:53.209Z,11.93
2023-02-19T18:29:25.936Z,11.82
2023-02-19T18:31:59.875Z,11.79
2023-02-19T18:34:27.543Z,11.74
2023-02-19T18:37:00.002Z,12.05
2023-02-19T18:39:26.566Z,11.93
2023-02-19T18:41:55.908Z,11.78
2023-02-19T18:44:24.638Z,11.76
2023-02-19T18:46:51.679Z,11.75
2023-02-19T18:49:20.198Z,11.65
2023-02-19T18:51:50.001Z,11.61
2023-02-19T18:54:16.646Z,11.57
2023-02-19T18:56:47.296Z,11.48
2023-02-19T18:59:19.924Z,11.40
2023-02-19T19:01:54.844Z,11.32
2023-02-19T19:04:21.756Z,11.29
2023-02-19T19:06:48.369Z,11.22
2023-02-19T19:09:14.950Z,11.19
2023-02-19T19:11:48.193Z,11.20
2023-02-19T19:14:17.119Z,11.16
2023-02-19T19:16:46.494Z,11.19
2023-02-19T19:19:22.340Z,11.11
2023-02-19T19:22:01.159Z,11.07
2023-02-19T19:24:27.760Z,11.06
2023-02-19T19:26:54.340Z,11.00
2023-02-19T19:29:21.857Z,11.02
2023-02-19T19:31:59.972Z,11.00
2023-02-19T19:34:35.449Z,11.00
2023-02-19T19:37:04.743Z,10.98
2023-02-19T19:39:34.003Z,10.94
2023-02-19T19:42:00.619Z,10.87
2023-02-19T19:44:27.297Z,10.87
2023-02-19T19:46:53.876Z,10.84
2023-02-19T19:49:22.165Z,10.82
2023-02-19T19:51:49.690Z,10.81
2023-02-19T19:54:16.363Z,10.83
2023-02-19T19:56:45.459Z,10.81
2023-02-19T19:59:17.242Z,10.99
2023-02-19T20:01:53.897Z,10.78
2023-02-19T20:07:13.718Z,10.61
2023-02-19T20:09:49.228Z,10.42
2023-02-19T20:12:17.084Z,10.35
2023-02-19T20:14:49.958Z,10.33
2023-02-19T20:17:22.002Z,10.43
2023-02-19T20:19:55.319Z,10.38
2023-02-19T20:22:23.698Z,10.43
2023-02-19T20:24:54.944Z,10.18
2023-02-19T20:27:22.601Z,10.19
2023-02-19T20:29:57.242Z,10.10
2023-02-19T20:32:40.598Z,9.93
2023-02-19T20:35:27.266Z,9.91
2023-02-19T20:38:00.352Z,10.09
2023-02-19T20:40:28.068Z,10.08
2023-02-19T20:43:00.663Z,10.03
2023-02-19T20:45:28.247Z,9.89
2023-02-19T20:47:54.896Z,9.90
2023-02-19T20:50:28.950Z,9.82
2023-02-19T20:52:58.323Z,9.84
2023-02-19T20:55:32.939Z,9.75
2023-02-19T20:58:02.296Z,9.80
2023-02-19T21:00:31.336Z,9.83
2023-02-19T21:03:07.704Z,10.02
2023-02-19T21:06:09.423Z,9.83
2023-02-19T21:08:41.004Z,9.66
2023-02-19T21:11:09.677Z,9.51
2023-02-19T21:13:52.917Z,9.45
2023-02-19T21:16:34.014Z,9.46
2023-02-19T21:19:03.944Z,9.47
2023-02-19T21:21:34.414Z,9.41
2023-02-19T21:24:04.394Z,9.38
2023-02-19T21:26:38.235Z,9.50
2023-02-19T21:29:06.081Z,9.35
2023-02-19T21:32:01.739Z,9.31
2023-02-19T21:34:52.374Z,9.25
2023-02-19T21:37:29.073Z,9.36
2023-02-19T21:40:01.645Z,9.37
2023-02-19T21:42:29.090Z,9.00
2023-02-19T21:44:58.316Z,9.15
2023-02-19T21:47:24.907Z,9.11
2023-02-19T21:49:57.120Z,9.20
2023-02-19T21:52:23.708Z,9.24
2023-02-19T21:55:09.161Z,9.22
2023-02-19T21:57:56.138Z,9.13
2023-02-19T22:00:43.718Z,8.57
2023-02-19T22:03:34.853Z,8.49
2023-02-19T22:06:24.208Z,8.34
2023-02-19T22:09:05.455Z,8.10
2023-02-19T22:11:55.918Z,8.33
2023-02-19T22:14:24.832Z,8.38
2023-02-19T22:17:13.586Z,8.30
2023-02-19T22:19:45.141Z,8.40
2023-02-19T22:22:14.025Z,8.35
2023-02-19T22:24:45.685Z,8.27
2023-02-19T22:27:18.714Z,8.29
2023-02-19T22:29:47.844Z,8.30
2023-02-19T22:32:14.554Z,8.34
2023-02-19T22:34:51.861Z,8.43
2023-02-19T22:37:29.141Z,9.56
2023-02-19T22:40:00.152Z,9.10
2023-02-19T22:42:35.658Z,8.51
2023-02-19T22:45:22.497Z,8.82
2023-02-19T22:47:49.147Z,8.65
2023-02-19T22:50:23.210Z,8.40
2023-02-19T22:52:50.483Z,8.30
2023-02-19T22:55:22.489Z,8.26
2023-02-19T22:57:50.808Z,8.21
2023-02-19T23:00:21.272Z,8.14
2023-02-19T23:02:54.396Z,8.52
2023-02-19T23:05:21.851Z,8.85
2023-02-19T23:07:50.997Z,9.03
2023-02-19T23:10:31.840Z,9.65
2023-02-19T23:13:17.875Z,9.03
2023-02-19T23:15:47.483Z,8.66
2023-02-19T23:18:24.941Z,8.53
2023-02-19T23:20:51.577Z,9.26
2023-02-19T23:23:21.161Z,8.71
2023-02-19T23:25:47.718Z,8.48
2023-02-19T23:28:28.685Z,8.37
2023-02-19T23:30:55.334Z,9.01
2023-02-19T23:33:22.086Z,8.95
2023-02-19T23:35:48.644Z,8.72
2023-02-19T23:38:19.231Z,8.55
2023-02-19T23:40:56.149Z,8.54
2023-02-19T23:43:28.413Z,8.45
2023-02-19T23:45:55.102Z,8.35
2023-02-19T23:48:21.748Z,8.31
2023-02-19T23:50:48.316Z,8.38
2023-02-19T23:53:14.903Z,8.30
2023-02-19T23:55:41.511Z,8.30
2023-02-19T23:58:11.109Z,8.28
